sensor_id;sensor_type;location;lat;lon;timestamp;pressure;altitude;pressure_sealevel;temperature;humidity
6668;BME280;3370;47.712;9.082;2023-05-14T00:01:54;96947.81;;;9.87;100.00
6668;BME280;3370;47.712;9.082;2023-05-14T00:04:20;96941.75;;;9.88;100.00
6668;BME280;3370;47.712;9.082;2023-05-14T00:06:45;96937.28;;;9.93;100.00
6668;BME280;3370;47.712;9.082;2023-05-14T00:09:11;96943.44;;;9.89;100.00
6668;BME280;3370;47.712;9.082;2023-05-14T00:11:37;96933.19;;;9.89;100.00
6668;BME280;3370;47.712;9.082;2023-05-14T00:14:04;96938.03;;;9.76;100.00
6668;BME280;3370;47.712;9.082;2023-05-14T00:16:29;96936.34;;;9.75;100.00
6668;BME280;3370;47.712;9.082;2023-05-14T00:18:55;96928.84;;;9.70;100.00
6668;BME280;3370;47.712;9.082;2023-05-14T00:21:21;96936.69;;;9.67;100.00
6668;BME280;3370;47.712;9.082;2023-05-14T00:23:47;96931.41;;;9.70;100.00
6668;BME280;3370;47.712;9.082;2023-05-14T00:26:13;96935.56;;;9.73;100.00
6668;BME280;3370;47.712;9.082;2023-05-14T00:28:38;96930.38;;;9.74;100.00
6668;BME280;3370;47.712;9.082;2023-05-14T00:31:04;96927.22;;;9.88;100.00
6668;BME280;3370;47.712;9.082;2023-05-14T00:33:30;96925.19;;;9.95;100.00
6668;BME280;3370;47.712;9.082;2023-05-14T00:35:55;96934.44;;;9.99;100.00
6668;BME280;3370;47.712;9.082;2023-05-14T00:38:21;96929.16;;;10.02;100.00
6668;BME280;3370;47.712;9.082;2023-05-14T00:40:48;96927.50;;;10.01;100.00
6668;BME280;3370;47.712;9.082;2023-05-14T00:43:20;96926.50;;;10.04;100.00
6668;BME280;3370;47.712;9.082;2023-05-14T00:45:49;96923.59;;;10.11;100.00
6668;BME280;3370;47.712;9.082;2023-05-14T00:48:15;96924.28;;;10.15;100.00
6668;BME280;3370;47.712;9.082;2023-05-14T00:50:42;96927.03;;;10.12;100.00
6668;BME280;3370;47.712;9.082;2023-05-14T00:53:10;96925.28;;;10.12;100.00
6668;BME280;3370;47.712;9.082;2023-05-14T00:55:37;96925.91;;;10.17;100.00
6668;BME280;3370;47.712;9.082;2023-05-14T00:58:11;96921.41;;;10.23;100.00
6668;BME280;3370;47.712;9.082;2023-05-14T01:00:39;96919.72;;;10.22;100.00
6668;BME280;3370;47.712;9.082;2023-05-14T01:03:06;96921.41;;;10.23;100.00
6668;BME280;3370;47.712;9.082;2023-05-14T01:06:11;96916.25;;;10.23;100.00
6668;BME280;3370;47.712;9.082;2023-05-14T01:11:54;96917.78;;;10.27;100.00
6668;BME280;3370;47.712;9.082;2023-05-14T01:14:56;96919.44;;;10.28;100.00
6668;BME280;3370;47.712;9.082;2023-05-14T01:17:27;96913.31;;;10.30;100.00
6668;BME280;3370;47.712;9.082;2023-05-14T01:19:54;96915.81;;;10.51;100.00
6668;BME280;3370;47.712;9.082;2023-05-14T01:22:21;96919.53;;;10.45;100.00
6668;BME280;3370;47.712;9.082;2023-05-14T01:24:46;96918.75;;;10.43;100.00
6668;BME280;3370;47.712;9.082;2023-05-14T01:27:24;96919.13;;;10.35;100.00
6668;BME280;3370;47.712;9.082;2023-05-14T01:32:50;96926.31;;;10.27;100.00
6668;BME280;3370;47.712;9.082;2023-05-14T01:35:17;96918.53;;;10.29;100.00
6668;BME280;3370;47.712;9.082;2023-05-14T01:37:43;96928.72;;;10.32;100.00
6668;BME280;3370;47.712;9.082;2023-05-14T01:40:10;96921.00;;;10.32;100.00
6668;BME280;3370;47.712;9.082;2023-05-14T01:42:37;96922.66;;;10.33;100.00
6668;BME280;3370;47.712;9.082;2023-05-14T01:45:04;96920.16;;;10.31;100.00
6668;BME280;3370;47.712;9.082;2023-05-14T01:47:30;96922.78;;;10.30;100.00
6668;BME280;3370;47.712;9.082;2023-05-14T01:49:56;96913.41;;;10.29;100.00
6668;BME280;3370;47.712;9.082;2023-05-14T01:52:21;96919.44;;;10.28;100.00
6668;BME280;3370;47.712;9.082;2023-05-14T01:54:47;96909.16;;;10.28;100.00
6668;BME280;3370;47.712;9.082;2023-05-14T01:57:13;96915.91;;;10.30;100.00
6668;BME280;3370;47.712;9.082;2023-05-14T01:59:39;96914.19;;;10.31;100.00
6668;BME280;3370;47.712;9.082;2023-05-14T02:02:05;96913.91;;;10.37;100.00
6668;BME280;3370;47.712;9.082;2023-05-14T02:04:30;96910.44;;;10.38;100.00
6668;BME280;3370;47.712;9.082;2023-05-14T02:06:56;96903.47;;;10.40;100.00
6668;BME280;3370;47.712;9.082;2023-05-14T02:09:22;96904.31;;;10.41;100.00
6668;BME280;3370;47.712;9.082;2023-05-14T02:11:48;96900.16;;;10.38;100.00
6668;BME280;3370;47.712;9.082;2023-05-14T02:14:14;96905.16;;;10.41;100.00
6668;BME280;3370;47.712;9.082;2023-05-14T02:16:40;96893.19;;;10.40;100.00
6668;BME280;3370;47.712;9.082;2023-05-14T02:19:06;96901.66;;;10.42;100.00
6668;BME280;3370;47.712;9.082;2023-05-14T02:21:32;96897.38;;;10.43;100.00
6668;BME280;3370;47.712;9.082;2023-05-14T02:23:58;96893.19;;;10.40;100.00
6668;BME280;3370;47.712;9.082;2023-05-14T02:26:23;96896.53;;;10.42;100.00
6668;BME280;3370;47.712;9.082;2023-05-14T02:28:49;96891.09;;;10.48;100.00
6668;BME280;3370;47.712;9.082;2023-05-14T02:31:15;96896.25;;;10.48;100.00
6668;BME280;3370;47.712;9.082;2023-05-14T02:33:43;96895.25;;;10.51;100.00
6668;BME280;3370;47.712;9.082;2023-05-14T02:36:09;96891.88;;;10.50;100.00
6668;BME280;3370;47.712;9.082;2023-05-14T02:38:35;96887.84;;;10.45;100.00
6668;BME280;3370;47.712;9.082;2023-05-14T02:41:01;96888.59;;;10.47;100.00
6668;BME280;3370;47.712;9.082;2023-05-14T02:43:27;96884.44;;;10.44;100.00
6668;BME280;3370;47.712;9.082;2023-05-14T02:45:52;96886.84;;;10.47;100.00
6668;BME280;3370;47.712;9.082;2023-05-14T02:48:18;96884.00;;;10.53;100.00
6668;BME280;3370;47.712;9.082;2023-05-14T02:50:44;96878.56;;;10.60;100.00
6668;BME280;3370;47.712;9.082;2023-05-14T02:53:10;96875.25;;;10.58;100.00
6668;BME280;3370;47.712;9.082;2023-05-14T02:55:35;96870.09;;;10.58;100.00
6668;BME280;3370;47.712;9.082;2023-05-14T02:58:01;96868.28;;;10.60;100.00
6668;BME280;3370;47.712;9.082;2023-05-14T03:00:27;96869.34;;;10.55;100.00
6668;BME280;3370;47.712;9.082;2023-05-14T03:02:53;96867.84;;;10.51;100.00
6668;BME280;3370;47.712;9.082;2023-05-14T03:05:19;96876.19;;;10.55;100.00
6668;BME280;3370;47.712;9.082;2023-05-14T03:07:45;96867.66;;;10.54;100.00
6668;BME280;3370;47.712;9.082;2023-05-14T03:10:10;96864.81;;;10.61;100.00
6668;BME280;3370;47.712;9.082;2023-05-14T03:12:36;96867.38;;;10.61;100.00
6668;BME280;3370;47.712;9.082;2023-05-14T03:15:02;96866.47;;;10.62;100.00
6668;BME280;3370;47.712;9.082;2023-05-14T03:17:28;96862.53;;;10.54;100.00
6668;BME280;3370;47.712;9.082;2023-05-14T03:19:54;96868.28;;;10.60;100.00
6668;BME280;3370;47.712;9.082;2023-05-14T03:22:20;96871.59;;;10.62;100.00
6668;BME280;3370;47.712;9.082;2023-05-14T03:24:45;96867.97;;;10.48;100.00
6668;BME280;3370;47.712;9.082;2023-05-14T03:27:11;96870.97;;;10.39;100.00
6668;BME280;3370;47.712;9.082;2023-05-14T03:29:37;96868.47;;;10.18;100.00
6668;BME280;3370;47.712;9.082;2023-05-14T03:32:03;96867.22;;;10.08;100.00
6668;BME280;3370;47.712;9.082;2023-05-14T03:34:29;96868.81;;;10.11;100.00
6668;BME280;3370;47.712;9.082;2023-05-14T03:36:54;96861.81;;;10.14;100.00
6668;BME280;3370;47.712;9.082;2023-05-14T03:39:20;96863.31;;;10.18;100.00
6668;BME280;3370;47.712;9.082;2023-05-14T03:41:47;96864.88;;;10.23;100.00
6668;BME280;3370;47.712;9.082;2023-05-14T03:44:13;96865.75;;;10.22;100.00
6668;BME280;3370;47.712;9.082;2023-05-14T03:46:39;96862.13;;;10.26;100.00
6668;BME280;3370;47.712;9.082;2023-05-14T03:49:06;96862.78;;;10.31;100.00
6668;BME280;3370;47.712;9.082;2023-05-14T03:51:32;96867.03;;;10.32;100.00
6668;BME280;3370;47.712;9.082;2023-05-14T03:53:58;96860.84;;;10.36;100.00
6668;BME280;3370;47.712;9.082;2023-05-14T03:56:24;96859.84;;;10.39;100.00
6668;BME280;3370;47.712;9.082;2023-05-14T03:58:51;96870.00;;;10.42;100.00
6668;BME280;3370;47.712;9.082;2023-05-14T04:01:17;96866.47;;;10.44;100.00
6668;BME280;3370;47.712;9.082;2023-05-14T04:03:43;96862.06;;;10.46;100.00
6668;BME280;3370;47.712;9.082;2023-05-14T04:06:08;96862.91;;;10.47;100.00
6668;BME280;3370;47.712;9.082;2023-05-14T04:08:34;96862.84;;;10.48;100.00
6668;BME280;3370;47.712;9.082;2023-05-14T04:11:00;96868.88;;;10.47;100.00
6668;BME280;3370;47.712;9.082;2023-05-14T04:13:26;96860.25;;;10.48;100.00
6668;BME280;3370;47.712;9.082;2023-05-14T04:15:51;96861.78;;;10.52;100.00
6668;BME280;3370;47.712;9.082;2023-05-14T04:18:17;96859.94;;;10.54;100.00
6668;BME280;3370;47.712;9.082;2023-05-14T04:20:43;96866.47;;;10.62;100.00
6668;BME280;3370;47.712;9.082;2023-05-14T04:23:09;96865.09;;;10.54;100.00
6668;BME280;3370;47.712;9.082;2023-05-14T04:25:35;96858.31;;;10.53;100.00
6668;BME280;3370;47.712;9.082;2023-05-14T04:28:01;96861.47;;;10.59;100.00
6668;BME280;3370;47.712;9.082;2023-05-14T04:30:27;96864.38;;;10.70;100.00
6668;BME280;3370;47.712;9.082;2023-05-14T04:32:52;96862.56;;;10.72;100.00
6668;BME280;3370;47.712;9.082;2023-05-14T04:35:19;96859.91;;;10.73;100.00
6668;BME280;3370;47.712;9.082;2023-05-14T04:37:45;96865.25;;;10.69;100.00
6668;BME280;3370;47.712;9.082;2023-05-14T04:40:11;96866.19;;;10.68;100.00
6668;BME280;3370;47.712;9.082;2023-05-14T04:42:37;96864.81;;;10.61;100.00
6668;BME280;3370;47.712;9.082;2023-05-14T04:45:05;96866.72;;;10.57;100.00
6668;BME280;3370;47.712;9.082;2023-05-14T04:47:31;96862.75;;;10.50;100.00
6668;BME280;3370;47.712;9.082;2023-05-14T04:49:57;96866.16;;;10.50;100.00
6668;BME280;3370;47.712;9.082;2023-05-14T04:52:23;96861.78;;;10.52;100.00
6668;BME280;3370;47.712;9.082;2023-05-14T04:54:49;96866.59;;;10.59;100.00
6668;BME280;3370;47.712;9.082;2023-05-14T04:57:15;96870.09;;;10.58;100.00
6668;BME280;3370;47.712;9.082;2023-05-14T04:59:41;96864.97;;;10.58;100.00
6668;BME280;3370;47.712;9.082;2023-05-14T05:02:07;96869.28;;;10.57;100.00
6668;BME280;3370;47.712;9.082;2023-05-14T05:04:32;96871.59;;;10.62;100.00
6668;BME280;3370;47.712;9.082;2023-05-14T05:06:58;96867.28;;;10.62;100.00
6668;BME280;3370;47.712;9.082;2023-05-14T05:09:24;96870.53;;;10.66;100.00
6668;BME280;3370;47.712;9.082;2023-05-14T05:11:50;96865.34;;;10.67;100.00
6668;BME280;3370;47.712;9.082;2023-05-14T05:14:16;96866.19;;;10.68;100.00
6668;BME280;3370;47.712;9.082;2023-05-14T05:16:42;96867.91;;;10.67;100.00
6668;BME280;3370;47.712;9.082;2023-05-14T05:19:08;96874.78;;;10.67;100.00
6668;BME280;3370;47.712;9.082;2023-05-14T05:21:34;96874.78;;;10.67;100.00
6668;BME280;3370;47.712;9.082;2023-05-14T05:24:00;96863.75;;;10.65;100.00
6668;BME280;3370;47.712;9.082;2023-05-14T05:26:26;96866.53;;;10.60;100.00
6668;BME280;3370;47.712;9.082;2023-05-14T05:28:52;96863.75;;;10.65;100.00
6668;BME280;3370;47.712;9.082;2023-05-14T05:31:18;96867.53;;;10.58;100.00
6668;BME280;3370;47.712;9.082;2023-05-14T05:33:44;96875.44;;;10.53;100.00
6668;BME280;3370;47.712;9.082;2023-05-14T05:36:10;96875.94;;;10.61;100.00
6668;BME280;3370;47.712;9.082;2023-05-14T05:38:35;96871.34;;;10.68;100.00
6668;BME280;3370;47.712;9.082;2023-05-14T05:41:01;96872.03;;;10.71;100.00
6668;BME280;3370;47.712;9.082;2023-05-14T05:43:27;96877.06;;;10.73;100.00
6668;BME280;3370;47.712;9.082;2023-05-14T05:45:53;96874.03;;;10.82;100.00
6668;BME280;3370;47.712;9.082;2023-05-14T05:48:19;96869.50;;;10.87;100.00
6668;BME280;3370;47.712;9.082;2023-05-14T05:50:48;96870.13;;;10.92;100.00
6668;BME280;3370;47.712;9.082;2023-05-14T05:53:14;96865.66;;;10.96;100.00
6668;BME280;3370;47.712;9.082;2023-05-14T05:55:43;96870.59;;;11.01;100.00
6668;BME280;3370;47.712;9.082;2023-05-14T05:58:08;96862.69;;;11.04;100.00
6668;BME280;3370;47.712;9.082;2023-05-14T06:00:34;96865.81;;;11.10;100.00
6668;BME280;3370;47.712;9.082;2023-05-14T06:03:00;96863.84;;;11.16;100.00
6668;BME280;3370;47.712;9.082;2023-05-14T06:05:26;96866.16;;;11.20;100.00
6668;BME280;3370;47.712;9.082;2023-05-14T06:07:52;96864.38;;;11.22;100.00
6668;BME280;3370;47.712;9.082;2023-05-14T06:10:18;96861.63;;;11.25;100.00
6668;BME280;3370;47.712;9.082;2023-05-14T06:12:44;96864.78;;;11.30;100.00
6668;BME280;3370;47.712;9.082;2023-05-14T06:15:10;96865.94;;;11.42;100.00
6668;BME280;3370;47.712;9.082;2023-05-14T06:17:37;96859.63;;;11.48;100.00
6668;BME280;3370;47.712;9.082;2023-05-14T06:20:03;96869.44;;;11.57;100.00
6668;BME280;3370;47.712;9.082;2023-05-14T06:22:30;96862.06;;;11.67;100.00
6668;BME280;3370;47.712;9.082;2023-05-14T06:24:56;96863.84;;;11.49;100.00
6668;BME280;3370;47.712;9.082;2023-05-14T06:27:21;96863.56;;;11.55;100.00
6668;BME280;3370;47.712;9.082;2023-05-14T06:29:47;96866.38;;;11.66;100.00
6668;BME280;3370;47.712;9.082;2023-05-14T06:32:14;96863.41;;;11.74;100.00
6668;BME280;3370;47.712;9.082;2023-05-14T06:34:41;96856.94;;;11.83;100.00
6668;BME280;3370;47.712;9.082;2023-05-14T06:37:07;96863.47;;;11.90;100.00
6668;BME280;3370;47.712;9.082;2023-05-14T06:39:35;96860.38;;;11.99;100.00
6668;BME280;3370;47.712;9.082;2023-05-14T06:42:01;96868.28;;;11.96;100.00
6668;BME280;3370;47.712;9.082;2023-05-14T06:44:27;96857.81;;;11.99;100.00
6668;BME280;3370;47.712;9.082;2023-05-14T06:46:52;96860.97;;;12.04;100.00
6668;BME280;3370;47.712;9.082;2023-05-14T06:49:18;96855.97;;;12.01;100.00
6668;BME280;3370;47.712;9.082;2023-05-14T06:51:44;96854.66;;;12.10;100.00
6668;BME280;3370;47.712;9.082;2023-05-14T06:54:10;96858.06;;;11.95;100.00
6668;BME280;3370;47.712;9.082;2023-05-14T06:56:36;96856.31;;;11.95;100.00
6668;BME280;3370;47.712;9.082;2023-05-14T06:59:02;96860.09;;;11.88;100.00
6668;BME280;3370;47.712;9.082;2023-05-14T07:01:27;96863.50;;;11.88;100.00
6668;BME280;3370;47.712;9.082;2023-05-14T07:03:53;96864.72;;;11.99;100.00
6668;BME280;3370;47.712;9.082;2023-05-14T07:06:19;96860.94;;;11.88;100.00
6668;BME280;3370;47.712;9.082;2023-05-14T07:08:45;96858.44;;;11.87;100.00
6668;BME280;3370;47.712;9.082;2023-05-14T07:11:11;96860.94;;;11.88;100.00
6668;BME280;3370;47.712;9.082;2023-05-14T07:13:38;96861.94;;;11.86;100.00
6668;BME280;3370;47.712;9.082;2023-05-14T07:16:06;96865.41;;;11.85;100.00
6668;BME280;3370;47.712;9.082;2023-05-14T07:18:33;96862.91;;;11.83;100.00
6668;BME280;3370;47.712;9.082;2023-05-14T07:20:59;96867.25;;;11.83;100.00
6668;BME280;3370;47.712;9.082;2023-05-14T07:23:25;96865.56;;;11.82;100.00
6668;BME280;3370;47.712;9.082;2023-05-14T07:25:50;96865.69;;;11.80;100.00
6668;BME280;3370;47.712;9.082;2023-05-14T07:28:16;96863.09;;;11.80;100.00
6668;BME280;3370;47.712;9.082;2023-05-14T07:30:42;96868.91;;;11.84;100.00
6668;BME280;3370;47.712;9.082;2023-05-14T07:33:08;96861.00;;;11.87;100.00
6668;BME280;3370;47.712;9.082;2023-05-14T07:35:33;96864.50;;;11.86;100.00
6668;BME280;3370;47.712;9.082;2023-05-14T07:37:59;96863.50;;;11.88;100.00
6668;BME280;3370;47.712;9.082;2023-05-14T07:40:25;96857.41;;;11.91;100.00
6668;BME280;3370;47.712;9.082;2023-05-14T07:42:51;96855.78;;;11.88;100.00
6668;BME280;3370;47.712;9.082;2023-05-14T07:45:17;96852.16;;;11.93;100.00
6668;BME280;3370;47.712;9.082;2023-05-14T07:47:43;96844.34;;;11.94;100.00
6668;BME280;3370;47.712;9.082;2023-05-14T07:50:09;96848.75;;;12.08;100.00
6668;BME280;3370;47.712;9.082;2023-05-14T07:52:35;96853.00;;;12.25;100.00
6668;BME280;3370;47.712;9.082;2023-05-14T07:55:02;96845.41;;;12.38;100.00
6668;BME280;3370;47.712;9.082;2023-05-14T07:57:28;96842.81;;;12.54;100.00
6668;BME280;3370;47.712;9.082;2023-05-14T07:59:55;96845.44;;;12.68;100.00
6668;BME280;3370;47.712;9.082;2023-05-14T08:02:21;96845.47;;;12.82;100.00
6668;BME280;3370;47.712;9.082;2023-05-14T08:04:47;96841.47;;;12.93;100.00
6668;BME280;3370;47.712;9.082;2023-05-14T08:07:12;96839.91;;;13.04;100.00
6668;BME280;3370;47.712;9.082;2023-05-14T08:09:38;96842.31;;;13.08;100.00
6668;BME280;3370;47.712;9.082;2023-05-14T08:12:05;96840.59;;;13.22;100.00
6668;BME280;3370;47.712;9.082;2023-05-14T08:14:31;96836.03;;;13.42;100.00
6668;BME280;3370;47.712;9.082;2023-05-14T08:16:56;96834.72;;;13.64;100.00
6668;BME280;3370;47.712;9.082;2023-05-14T08:19:22;96845.97;;;13.77;100.00
6668;BME280;3370;47.712;9.082;2023-05-14T08:21:49;96833.44;;;13.85;100.00
6668;BME280;3370;47.712;9.082;2023-05-14T08:24:15;96834.31;;;13.98;100.00
6668;BME280;3370;47.712;9.082;2023-05-14T08:26:41;96836.88;;;14.13;100.00
6668;BME280;3370;47.712;9.082;2023-05-14T08:29:07;96829.56;;;14.19;100.00
6668;BME280;3370;47.712;9.082;2023-05-14T08:31:33;96838.59;;;14.27;99.90
6668;BME280;3370;47.712;9.082;2023-05-14T08:33:59;96837.78;;;14.39;99.85
6668;BME280;3370;47.712;9.082;2023-05-14T08:36:25;96837.25;;;14.34;99.83
6668;BME280;3370;47.712;9.082;2023-05-14T08:38:51;96839.41;;;14.27;98.61
6668;BME280;3370;47.712;9.082;2023-05-14T08:41:17;96841.47;;;14.22;99.17
6668;BME280;3370;47.712;9.082;2023-05-14T08:44:11;96840.00;;;14.18;97.93
6668;BME280;3370;47.712;9.082;2023-05-14T08:46:38;96835.56;;;14.20;99.63
6668;BME280;3370;47.712;9.082;2023-05-14T08:49:39;96835.47;;;14.22;98.88
6668;BME280;3370;47.712;9.082;2023-05-14T08:52:06;96839.41;;;14.27;97.88
6668;BME280;3370;47.712;9.082;2023-05-14T08:54:33;96833.22;;;14.30;97.39
6668;BME280;3370;47.712;9.082;2023-05-14T08:56:59;96837.88;;;14.37;98.92
6668;BME280;3370;47.712;9.082;2023-05-14T08:59:25;96830.13;;;14.37;94.85
6668;BME280;3370;47.712;9.082;2023-05-14T09:01:53;96833.47;;;14.40;95.01
6668;BME280;3370;47.712;9.082;2023-05-14T09:04:21;96824.22;;;14.35;94.60
6668;BME280;3370;47.712;9.082;2023-05-14T09:06:52;96828.56;;;14.35;92.29
6668;BME280;3370;47.712;9.082;2023-05-14T09:09:19;96826.75;;;14.23;93.55
6668;BME280;3370;47.712;9.082;2023-05-14T09:11:52;96829.66;;;14.18;94.38
6668;BME280;3370;47.712;9.082;2023-05-14T09:14:18;96824.84;;;14.12;94.30
6668;BME280;3370;47.712;9.082;2023-05-14T09:16:47;96824.31;;;14.07;95.43
6668;BME280;3370;47.712;9.082;2023-05-14T09:19:13;96829.47;;;14.07;96.02
6668;BME280;3370;47.712;9.082;2023-05-14T09:21:41;96817.03;;;13.99;93.68
6668;BME280;3370;47.712;9.082;2023-05-14T09:24:08;96818.81;;;13.98;95.70
6668;BME280;3370;47.712;9.082;2023-05-14T09:26:42;96815.31;;;13.99;95.95
6668;BME280;3370;47.712;9.082;2023-05-14T09:29:08;96823.06;;;13.99;96.18
6668;BME280;3370;47.712;9.082;2023-05-14T09:31:34;96821.94;;;14.04;96.33
6668;BME280;3370;47.712;9.082;2023-05-14T09:34:01;96821.53;;;14.10;93.75
6668;BME280;3370;47.712;9.082;2023-05-14T09:36:28;96811.19;;;14.10;93.90
6668;BME280;3370;47.712;9.082;2023-05-14T09:38:57;96821.16;;;14.16;91.94
6668;BME280;3370;47.712;9.082;2023-05-14T09:41:23;96815.78;;;14.19;90.38
6668;BME280;3370;47.712;9.082;2023-05-14T09:43:50;96820.25;;;14.03;88.48
6668;BME280;3370;47.712;9.082;2023-05-14T09:46:16;96813.78;;;14.10;91.24
6668;BME280;3370;47.712;9.082;2023-05-14T09:48:42;96803.81;;;14.18;94.30
6668;BME280;3370;47.712;9.082;2023-05-14T09:51:12;96804.06;;;14.41;94.65
6668;BME280;3370;47.712;9.082;2023-05-14T09:53:38;96796.97;;;14.57;93.70
6668;BME280;3370;47.712;9.082;2023-05-14T09:56:06;96794.69;;;14.80;92.15
6668;BME280;3370;47.712;9.082;2023-05-14T09:58:32;96791.28;;;15.05;89.03
6668;BME280;3370;47.712;9.082;2023-05-14T10:00:58;96787.13;;;15.28;84.51
6668;BME280;3370;47.712;9.082;2023-05-14T10:03:28;96779.44;;;15.52;83.09
6668;BME280;3370;47.712;9.082;2023-05-14T10:05:58;96778.16;;;15.83;82.46
6668;BME280;3370;47.712;9.082;2023-05-14T10:08:44;96770.56;;;16.17;78.91
6668;BME280;3370;47.712;9.082;2023-05-14T10:11:14;96773.47;;;16.37;78.93
6668;BME280;3370;47.712;9.082;2023-05-14T10:14:03;96781.88;;;16.16;77.40
6668;BME280;3370;47.712;9.082;2023-05-14T10:16:40;96774.59;;;16.21;79.16
6668;BME280;3370;47.712;9.082;2023-05-14T10:19:10;96774.63;;;15.71;80.56
6668;BME280;3370;47.712;9.082;2023-05-14T10:21:39;96777.03;;;15.75;81.83
6668;BME280;3370;47.712;9.082;2023-05-14T10:24:06;96777.19;;;15.84;82.22
6668;BME280;3370;47.712;9.082;2023-05-14T10:26:35;96771.75;;;15.76;77.88
6668;BME280;3370;47.712;9.082;2023-05-14T10:29:04;96779.19;;;15.68;79.02
6668;BME280;3370;47.712;9.082;2023-05-14T10:31:53;96781.78;;;15.68;78.14
6668;BME280;3370;47.712;9.082;2023-05-14T10:34:42;96777.44;;;15.68;80.66
6668;BME280;3370;47.712;9.082;2023-05-14T10:37:17;96779.53;;;15.76;78.89
6668;BME280;3370;47.712;9.082;2023-05-14T10:39:50;96779.31;;;15.79;76.89
6668;BME280;3370;47.712;9.082;2023-05-14T10:42:18;96781.41;;;15.74;77.44
6668;BME280;3370;47.712;9.082;2023-05-14T10:44:55;96772.66;;;15.75;77.79
6668;BME280;3370;47.712;9.082;2023-05-14T10:47:45;96775.47;;;15.85;76.10
6668;BME280;3370;47.712;9.082;2023-05-14T10:50:14;96767.69;;;16.09;77.48
6668;BME280;3370;47.712;9.082;2023-05-14T10:52:42;96769.41;;;16.21;77.77
6668;BME280;3370;47.712;9.082;2023-05-14T10:55:11;96765.97;;;16.45;74.24
6668;BME280;3370;47.712;9.082;2023-05-14T10:57:39;96755.63;;;16.67;71.57
6668;BME280;3370;47.712;9.082;2023-05-14T11:00:06;96757.13;;;16.83;68.35
6668;BME280;3370;47.712;9.082;2023-05-14T11:02:38;96752.22;;;17.25;70.28
6668;BME280;3370;47.712;9.082;2023-05-14T11:05:06;96751.50;;;17.68;67.56
6668;BME280;3370;47.712;9.082;2023-05-14T11:07:36;96744.75;;;17.54;64.90
6668;BME280;3370;47.712;9.082;2023-05-14T11:10:13;96745.34;;;17.80;66.74
6668;BME280;3370;47.712;9.082;2023-05-14T11:12:42;96747.66;;;18.06;66.67
6668;BME280;3370;47.712;9.082;2023-05-14T11:15:14;96732.97;;;18.37;64.87
6668;BME280;3370;47.712;9.082;2023-05-14T11:17:43;96733.19;;;18.67;67.17
6668;BME280;3370;47.712;9.082;2023-05-14T11:20:10;96730.59;;;18.67;63.38
6668;BME280;3370;47.712;9.082;2023-05-14T11:22:38;96739.09;;;18.48;62.39
6668;BME280;3370;47.712;9.082;2023-05-14T11:25:05;96732.28;;;18.35;62.30
6668;BME280;3370;47.712;9.082;2023-05-14T11:27:37;96725.00;;;18.29;63.42
6668;BME280;3370;47.712;9.082;2023-05-14T11:30:03;96718.69;;;18.32;63.12
6668;BME280;3370;47.712;9.082;2023-05-14T11:32:32;96733.50;;;18.20;63.02
6668;BME280;3370;47.712;9.082;2023-05-14T11:34:59;96728.13;;;18.12;64.49
6668;BME280;3370;47.712;9.082;2023-05-14T11:37:25;96726.81;;;18.17;63.88
6668;BME280;3370;47.712;9.082;2023-05-14T11:39:52;96733.22;;;18.13;63.47
6668;BME280;3370;47.712;9.082;2023-05-14T11:42:20;96731.94;;;18.08;64.69
6668;BME280;3370;47.712;9.082;2023-05-14T11:44:49;96728.75;;;17.81;63.48
6668;BME280;3370;47.712;9.082;2023-05-14T11:47:17;96723.00;;;17.67;63.53
6668;BME280;3370;47.712;9.082;2023-05-14T11:49:44;96722.66;;;17.60;64.54
6668;BME280;3370;47.712;9.082;2023-05-14T11:52:12;96722.06;;;17.56;65.48
6668;BME280;3370;47.712;9.082;2023-05-14T11:54:42;96714.50;;;17.65;66.00
6668;BME280;3370;47.712;9.082;2023-05-14T11:57:19;96710.50;;;18.15;65.77
6668;BME280;3370;47.712;9.082;2023-05-14T11:59:47;96714.94;;;19.09;62.28
6668;BME280;3370;47.712;9.082;2023-05-14T12:02:16;96700.53;;;19.96;62.59
6668;BME280;3370;47.712;9.082;2023-05-14T12:04:48;96698.03;;;20.82;57.72
6668;BME280;3370;47.712;9.082;2023-05-14T12:07:16;96691.53;;;21.23;53.71
6668;BME280;3370;47.712;9.082;2023-05-14T12:09:45;96694.91;;;21.71;56.43
6668;BME280;3370;47.712;9.082;2023-05-14T12:12:20;96693.63;;;21.93;51.91
6668;BME280;3370;47.712;9.082;2023-05-14T12:14:48;96699.63;;;22.04;50.50
6668;BME280;3370;47.712;9.082;2023-05-14T12:17:20;96686.84;;;22.36;51.03
6668;BME280;3370;47.712;9.082;2023-05-14T12:19:49;96686.94;;;22.97;48.71
6668;BME280;3370;47.712;9.082;2023-05-14T12:22:22;96685.22;;;22.88;47.72
6668;BME280;3370;47.712;9.082;2023-05-14T12:24:58;96682.00;;;22.42;48.72
6668;BME280;3370;47.712;9.082;2023-05-14T12:27:27;96691.63;;;21.87;48.31
6668;BME280;3370;47.712;9.082;2023-05-14T12:30:05;96680.28;;;21.41;50.92
6668;BME280;3370;47.712;9.082;2023-05-14T12:32:32;96681.56;;;21.37;51.07
6668;BME280;3370;47.712;9.082;2023-05-14T12:34:58;96680.88;;;21.07;50.19
6668;BME280;3370;47.712;9.082;2023-05-14T12:37:25;96677.38;;;20.89;51.81
6668;BME280;3370;47.712;9.082;2023-05-14T12:39:52;96672.72;;;21.48;52.72
6668;BME280;3370;47.712;9.082;2023-05-14T12:42:17;96663.22;;;22.10;48.08
6668;BME280;3370;47.712;9.082;2023-05-14T12:44:43;96665.19;;;22.52;49.42
6668;BME280;3370;47.712;9.082;2023-05-14T12:47:09;96657.66;;;22.75;47.46
6668;BME280;3370;47.712;9.082;2023-05-14T12:49:35;96665.16;;;22.70;47.38
6668;BME280;3370;47.712;9.082;2023-05-14T12:52:01;96667.31;;;22.13;48.22
6668;BME280;3370;47.712;9.082;2023-05-14T12:54:27;96664.78;;;21.85;49.66
6668;BME280;3370;47.712;9.082;2023-05-14T12:56:53;96670.81;;;21.40;50.24
6668;BME280;3370;47.712;9.082;2023-05-14T12:59:18;96668.22;;;21.12;51.37
6668;BME280;3370;47.712;9.082;2023-05-14T13:01:44;96667.41;;;21.02;50.33
6668;BME280;3370;47.712;9.082;2023-05-14T13:04:10;96660.84;;;20.98;50.71
6668;BME280;3370;47.712;9.082;2023-05-14T13:06:39;96663.00;;;20.65;51.05
6668;BME280;3370;47.712;9.082;2023-05-14T13:09:06;96655.31;;;20.24;51.72
6668;BME280;3370;47.712;9.082;2023-05-14T13:11:33;96659.19;;;20.01;52.14
6668;BME280;3370;47.712;9.082;2023-05-14T13:14:00;96657.91;;;19.56;53.26
6668;BME280;3370;47.712;9.082;2023-05-14T13:16:27;96659.00;;;19.13;54.24
6668;BME280;3370;47.712;9.082;2023-05-14T13:18:53;96651.84;;;19.05;54.67
6668;BME280;3370;47.712;9.082;2023-05-14T13:21:19;96644.78;;;18.86;55.04
6668;BME280;3370;47.712;9.082;2023-05-14T13:23:46;96648.63;;;18.92;55.90